Time;durP1;ratioP1;P1;durP2;ratioP2;P2;SDS_P1;SDS_P2;PMS_P1;PMS_P2;Temp;Humidity;BMP_temperature;BMP_pressure;BME280_temperature;BME280_humidity;BME280_pressure;Samples;Min_cycle;Max_cycle;Signal;HPM_P1;HPM_P2
2021/04/28 00:00:36;;;;;;;27.18;18.40;;;;;;;4.12;46.90;100244.67;128697;1097;22328;-78
2021/04/28 00:03:15;;;;;;;31.98;19.73;;;;;;;4.09;47.12;100241.48;128598;1098;22345;-79
2021/04/28 00:05:44;;;;;;;27.73;19.13;;;;;;;4.08;46.96;100245.89;128644;1097;22332;-79
2021/04/28 00:08:13;;;;;;;28.35;20.90;;;;;;;4.06;47.11;100242.56;128663;1098;22433;-79
2021/04/28 00:10:42;;;;;;;27.50;19.63;;;;;;;3.99;47.23;100237.02;128642;1095;24466;-78
2021/04/28 00:13:15;;;;;;;27.83;21.50;;;;;;;3.91;47.33;100231.63;128640;1098;22430;-78
2021/04/28 00:15:48;;;;;;;;;;;;;;;3.77;47.22;100235.38;128710;1095;25262;-78
2021/04/28 00:18:18;;;;;;;30.45;21.63;;;;;;;3.66;47.58;100232.80;128609;1097;21257;-78
2021/04/28 00:20:49;;;;;;;36.53;23.35;;;;;;;3.63;47.69;100227.86;128712;1097;22325;-78
2021/04/28 00:23:18;;;;;;;41.43;24.45;;;;;;;3.67;48.09;100224.03;128701;1095;22330;-78
2021/04/28 00:25:47;;;;;;;32.60;22.63;;;;;;;3.66;48.06;100224.97;128648;1098;22328;-78
2021/04/28 00:28:17;;;;;;;37.70;23.88;;;;;;;3.65;48.08;100225.94;128863;1094;24596;-78
2021/04/28 00:30:45;;;;;;;35.95;24.63;;;;;;;3.63;48.26;100222.64;128692;1098;22368;-78
2021/04/28 00:33:14;;;;;;;41.78;25.00;;;;;;;3.62;48.26;100223.57;128669;1098;22465;-78
2021/04/28 00:35:43;;;;;;;39.85;26.40;;;;;;;3.59;48.18;100226.43;128644;1098;23095;-78
2021/04/28 00:38:12;;;;;;;39.97;26.13;;;;;;;3.58;48.20;100227.39;128684;1097;22365;-79
2021/04/28 00:40:41;;;;;;;37.68;26.63;;;;;;;3.57;48.53;100227.53;128654;1094;24945;-78
2021/04/28 00:43:10;;;;;;;37.43;26.65;;;;;;;3.53;48.44;100226.93;128697;1095;22366;-78
2021/04/28 00:45:39;;;;;;;43.28;28.38;;;;;;;3.50;48.46;100224.59;128678;1098;22436;-78
2021/04/28 00:48:11;;;;;;;45.93;32.25;;;;;;;3.47;48.59;100223.06;128726;1095;22300;-77
2021/04/28 00:50:45;;;;;;;51.20;32.85;;;;;;;3.44;48.63;100230.31;128702;1098;22341;-78
2021/04/28 00:53:18;;;;;;;42.78;29.88;;;;;;;3.44;48.82;100222.48;128717;1095;22342;-78
2021/04/28 00:55:49;;;;;;;47.95;31.75;;;;;;;3.41;48.71;100214.89;128738;1098;22339;-79
2021/04/28 00:58:21;;;;;;;42.85;29.95;;;;;;;3.36;48.84;100210.03;128746;1096;22449;-78
2021/04/28 01:00:52;;;;;;;46.68;31.25;;;;;;;3.32;49.07;100210.41;128691;1093;24466;-79
2021/04/28 01:03:26;;;;;;;47.60;31.60;;;;;;;3.29;48.86;100221.92;128829;1093;22339;-79
2021/04/28 01:06:02;;;;;;;49.13;30.40;;;;;;;3.27;48.99;100216.02;128801;1095;22345;-78
2021/04/28 01:08:31;;;;;;;44.80;30.45;;;;;;;3.27;49.26;100211.63;128804;1095;22351;-78
2021/04/28 01:11:01;;;;;;;44.40;30.38;;;;;;;3.26;49.38;100203.89;128720;1095;22339;-79
2021/04/28 01:13:32;;;;;;;45.88;31.83;;;;;;;3.24;49.34;100213.66;128739;1096;22331;-79
2021/04/28 01:16:01;;;;;;;38.95;29.13;;;;;;;3.23;49.31;100210.22;128435;1098;22408;-79
2021/04/28 01:18:32;;;;;;;38.23;26.98;;;;;;;3.22;49.48;100205.93;128454;1099;22339;-79
2021/04/28 01:21:02;;;;;;;42.65;30.50;;;;;;;3.18;49.37;100207.14;128393;1098;22342;-79
2021/04/28 01:23:31;;;;;;;38.50;28.58;;;;;;;3.15;49.54;100202.16;128738;1096;24569;-79
2021/04/28 01:26:01;;;;;;;43.25;31.50;;;;;;;3.16;49.73;100208.20;128093;1100;22468;-79
2021/04/28 01:28:32;;;;;;;45.40;31.83;;;;;;;3.12;49.72;100210.23;128055;1101;22375;-79
2021/04/28 01:31:07;;;;;;;39.48;31.23;;;;;;;3.10;49.45;100206.94;128108;1101;22368;-80
2021/04/28 01:33:43;;;;;;;45.63;31.25;;;;;;;3.09;49.94;100202.65;128075;1098;24550;-78
2021/04/28 01:36:29;;;;;;;40.78;29.95;;;;;;;3.05;49.94;100202.07;128341;1101;22355;-79
2021/04/28 01:39:03;;;;;;;44.45;29.95;;;;;;;3.01;49.99;100207.67;128407;1096;22358;-79
2021/04/28 01:41:39;;;;;;;39.28;30.38;;;;;;;2.99;50.01;100201.73;128291;1101;22458;-78
2021/04/28 01:44:12;;;;;;;45.75;30.85;;;;;;;2.97;50.09;100211.48;128440;1098;22451;-79
2021/04/28 01:46:43;;;;;;;42.75;30.03;;;;;;;2.93;50.22;100207.44;128657;1097;22321;-79
2021/04/28 01:49:13;;;;;;;38.23;29.38;;;;;;;2.89;50.41;100201.63;128683;1098;22592;-79
2021/04/28 01:51:43;;;;;;;38.95;28.98;;;;;;;2.84;50.47;100201.19;128640;1097;22415;-79
2021/04/28 01:54:18;;;;;;;34.93;27.35;;;;;;;2.81;50.61;100196.20;128747;1097;22348;-78
2021/04/28 01:56:51;;;;;;;39.68;26.85;;;;;;;2.75;50.40;100189.69;128797;1097;22321;-78
2021/04/28 01:59:33;;;;;;;40.75;29.98;;;;;;;2.72;50.96;100189.92;128649;1097;22336;-78
2021/04/28 02:02:41;;;;;;;41.73;28.88;;;;;;;2.66;50.80;100190.41;128254;1100;22463;-78
2021/04/28 02:05:11;;;;;;;35.88;29.53;;;;;;;2.64;51.00;100194.11;128330;1098;24476;-78
2021/04/28 02:07:46;;;;;;;37.65;28.38;;;;;;;2.59;50.96;100179.63;128401;1101;22336;-77
2021/04/28 02:10:16;;;;;;;43.95;32.30;;;;;;;2.56;51.10;100182.48;128298;1101;22468;-77
2021/04/28 02:12:48;;;;;;;44.23;32.50;;;;;;;2.52;51.26;100178.45;128287;1098;22352;-78
2021/04/28 02:15:24;;;;;;;47.50;33.48;;;;;;;2.52;51.19;100173.23;128308;1101;23209;-78
2021/04/28 02:18:02;;;;;;;45.45;34.88;;;;;;;2.51;51.49;100176.81;128262;1100;25525;-78
2021/04/28 02:20:33;;;;;;;49.45;35.68;;;;;;;2.49;51.50;100175.27;128058;1100;22430;-78
2021/04/28 02:23:34;;;;;;;47.75;33.80;;;;;;;2.46;51.69;100167.67;128096;1101;22478;-79
2021/04/28 02:26:05;;;;;;;43.20;31.63;;;;;;;2.43;51.78;100165.31;128099;1103;22384;-79
2021/04/28 02:28:34;;;;;;;40.58;30.05;;;;;;;2.42;51.73;100169.70;128065;1100;22402;-79
2021/04/28 02:31:05;;;;;;;44.30;31.45;;;;;;;2.39;52.01;100166.50;128099;1101;22370;-78
2021/04/28 02:33:38;;;;;;;42.30;28.30;;;;;;;2.36;52.05;100168.39;128189;1100;22452;-78
2021/04/28 02:36:44;;;;;;;39.88;29.88;;;;;;;2.31;51.99;100170.54;128562;1094;22309;-78
2021/04/28 02:39:43;;;;;;;44.70;29.93;;;;;;;2.28;52.25;100165.56;128514;1098;23113;-78
2021/04/28 02:42:12;;;;;;;40.13;27.40;;;;;;;2.27;52.31;100163.91;128730;1098;22315;-79
2021/04/28 02:44:46;;;;;;;42.58;28.58;;;;;;;2.25;52.33;100165.80;128737;1098;22566;-78
2021/04/28 02:47:16;;;;;;;43.58;28.35;;;;;;;2.23;52.37;100172.07;128694;1098;22402;-77
2021/04/28 02:49:47;;;;;;;65.85;35.30;;;;;;;2.22;52.45;100167.81;128757;1098;22389;-78
2021/04/28 02:52:35;;;;;;;48.50;32.45;;;;;;;2.17;52.63;100162.97;128402;1096;22413;-78
2021/04/28 02:55:06;;;;;;;42.68;30.15;;;;;;;2.17;52.38;100156.93;128372;1100;22335;-78
2021/04/28 02:57:35;;;;;;;49.08;32.15;;;;;;;2.14;52.76;100155.39;128394;1097;25124;-78
2021/04/28 03:00:11;;;;;;;54.18;32.45;;;;;;;2.12;52.97;100152.06;128433;1099;23103;-78
2021/04/28 03:02:41;;;;;;;63.85;35.70;;;;;;;2.10;52.79;100151.36;128695;1097;22348;-78
2021/04/28 03:05:14;;;;;;;44.15;30.40;;;;;;;2.08;53.17;100161.06;128679;1096;22638;-78
2021/04/28 03:08:04;;;;;;;51.23;32.58;;;;;;;2.05;53.27;100151.70;128331;1097;22341;-78
2021/04/28 03:10:35;;;;;;;46.68;31.38;;;;;;;2.06;53.27;100158.56;128603;1098;22355;-79
2021/04/28 03:13:05;;;;;;;48.97;32.07;;;;;;;2.07;53.32;100154.20;128674;1098;22339;-77
2021/04/28 03:15:36;;;;;;;47.08;32.73;;;;;;;2.03;53.39;100156.22;128671;1095;24466;-77
2021/04/28 03:18:07;;;;;;;40.68;30.38;;;;;;;2.03;53.34;100165.78;128685;1097;22345;-77
2021/04/28 03:20:41;;;;;;;48.13;32.35;;;;;;;2.04;53.37;100154.44;128713;1094;24688;-78
2021/04/28 03:23:12;;;;;;;43.55;31.08;;;;;;;2.02;53.38;100151.11;128690;1098;22359;-78
2021/04/28 03:25:43;;;;;;;52.88;34.25;;;;;;;1.99;53.46;100156.55;128682;1094;22325;-78
2021/04/28 03:28:12;;;;;;;43.87;30.57;;;;;;;1.97;53.50;100156.68;128803;1098;22454;-78
2021/04/28 03:30:41;;;;;;;42.70;31.78;;;;;;;1.97;53.56;100153.25;128675;1098;23269;-79
2021/04/28 03:33:10;;;;;;;46.07;30.47;;;;;;;1.95;53.57;100150.75;128677;1098;22626;-79
2021/04/28 03:36:13;;;;;;;45.03;30.80;;;;;;;1.92;53.90;100147.55;128613;1098;23549;-78
2021/04/28 03:39:00;;;;;;;45.88;30.20;;;;;;;1.94;54.05;100151.70;128676;1095;22782;-79
2021/04/28 03:41:30;;;;;;;50.98;31.43;;;;;;;1.94;53.92;100151.70;128628;1097;22357;-80
2021/04/28 03:44:01;;;;;;;50.35;32.70;;;;;;;1.98;54.17;100154.91;128645;1098;22342;-79
2021/04/28 03:46:30;;;;;;;48.13;33.10;;;;;;;2.03;54.33;100151.01;129048;1097;22327;-78
2021/04/28 03:48:59;;;;;;;49.85;33.75;;;;;;;2.06;54.37;100149.92;128667;1098;23962;-77
2021/04/28 03:51:28;;;;;;;49.80;33.40;;;;;;;2.08;54.02;100155.85;128654;1098;22755;-78
2021/04/28 03:54:18;;;;;;;44.40;31.00;;;;;;;2.07;53.96;100156.81;128781;1096;22327;-77
2021/04/28 03:56:52;;;;;;;41.33;30.30;;;;;;;2.08;54.02;100153.25;128775;1095;22626;-78
2021/04/28 03:59:21;;;;;;;47.38;32.93;;;;;;;2.14;54.34;100152.78;128789;1095;22348;-79
2021/04/28 04:01:54;;;;;;;45.47;29.43;;;;;;;2.25;54.51;100149.34;128747;1095;23184;-78
2021/04/28 04:04:26;;;;;;;40.58;30.03;;;;;;;2.39;54.64;100138.65;128728;1095;22326;-79
2021/04/28 04:07:14;;;;;;;42.53;28.85;;;;;;;2.56;54.70;100148.58;128749;1095;22452;-79
2021/04/28 04:09:53;;;;;;;42.58;28.35;;;;;;;2.72;54.48;100149.98;128854;1096;22341;-78
2021/04/28 04:12:23;;;;;;;37.60;26.93;;;;;;;2.88;54.19;100149.59;128738;1095;22331;-78
2021/04/28 04:14:59;;;;;;;39.00;27.77;;;;;;;3.05;54.17;100149.88;128768;1095;22345;-79
2021/04/28 04:17:29;;;;;;;42.68;26.48;;;;;;;3.22;53.75;100145.06;128726;1095;22327;-78
2021/04/28 04:20:17;;;;;;;36.17;26.00;;;;;;;3.40;53.62;100143.56;129058;1095;22785;-78
2021/04/28 04:23:06;;;;;;;36.98;26.68;;;;;;;3.62;53.58;100142.59;128731;1095;23110;-77
2021/04/28 04:25:34;;;;;;;42.93;27.15;;;;;;;3.86;53.30;100144.09;128734;1093;22339;-78
2021/04/28 04:28:04;;;;;;;35.90;25.70;;;;;;;4.05;52.67;100140.77;128653;1095;22337;-78
2021/04/28 04:31:08;;;;;;;32.40;24.78;;;;;;;4.22;51.94;100132.30;128270;1098;22354;-79
2021/04/28 04:33:59;;;;;;;39.05;25.95;;;;;;;4.35;51.60;100134.69;128258;1098;24472;-77
2021/04/28 04:36:46;;;;;;;44.48;26.30;;;;;;;4.42;50.90;100136.63;128277;1101;22345;-78
2021/04/28 04:39:34;;;;;;;40.05;25.38;;;;;;;4.51;50.81;100136.80;128240;1101;22358;-78
2021/04/28 04:42:26;;;;;;;35.40;25.65;;;;;;;4.61;50.77;100135.86;128242;1098;22337;-79
2021/04/28 04:45:10;;;;;;;37.73;27.53;;;;;;;4.70;50.64;100137.67;128242;1101;22362;-78
2021/04/28 04:47:40;;;;;;;;;;;;;;;4.84;50.25;100144.30;128395;1098;25191;-78
2021/04/28 04:50:10;;;;;;;31.53;23.93;;;;;;;5.02;50.01;100133.97;128289;1098;24469;-78
2021/04/28 04:52:42;;;;;;;35.93;24.00;;;;;;;5.19;49.50;100138.52;128312;1101;22446;-79
2021/04/28 04:55:14;;;;;;;32.83;23.60;;;;;;;5.30;49.38;100136.72;128305;1097;22401;-77
2021/04/28 04:57:43;;;;;;;;;;;;;;;5.43;49.58;100129.39;128121;1102;22458;-77
2021/04/28 05:00:16;;;;;;;33.10;22.55;;;;;;;5.62;49.42;100141.65;128111;1100;21271;-77
2021/04/28 05:02:45;;;;;;;29.00;20.80;;;;;;;5.83;48.76;100142.30;128162;1100;22368;-78
2021/04/28 05:05:21;;;;;;;35.70;21.10;;;;;;;6.03;48.21;100144.88;128194;1099;22342;-77
2021/04/28 05:07:50;;;;;;;35.50;21.77;;;;;;;6.17;47.91;100146.23;128283;1100;22356;-78
2021/04/28 05:10:21;;;;;;;34.63;23.23;;;;;;;6.43;47.66;100148.98;128361;1098;22334;-78
2021/04/28 05:12:50;;;;;;;87.45;29.63;;;;;;;6.70;47.11;100142.92;128299;1098;22342;-78
2021/04/28 05:15:19;;;;;;;28.90;20.33;;;;;;;6.97;46.38;100140.24;128354;1098;22345;-79
2021/04/28 05:17:48;;;;;;;36.33;21.60;;;;;;;7.24;46.09;100139.33;128695;1098;22346;-79
2021/04/28 05:20:17;;;;;;;26.73;18.13;;;;;;;7.60;45.58;100141.92;128609;1095;22796;-79
2021/04/28 05:22:46;;;;;;;25.60;18.38;;;;;;;7.90;44.56;100132.74;128650;1098;22434;-79
2021/04/28 05:25:50;;;;;;;24.73;16.27;;;;;;;8.14;43.93;100141.74;128272;1101;22380;-79
2021/04/28 05:28:19;;;;;;;25.68;17.13;;;;;;;8.33;43.16;100136.24;128254;1101;23822;-79
2021/04/28 05:30:48;;;;;;;23.63;16.23;;;;;;;8.56;43.30;100136.49;128124;1102;22469;-79
2021/04/28 05:33:18;;;;;;;26.10;17.65;;;;;;;8.95;42.70;100134.13;128065;1099;25440;-79
2021/04/28 05:35:50;;;;;;;25.63;17.95;;;;;;;9.10;41.81;100136.14;128010;1102;22383;-75
2021/04/28 05:38:19;;;;;;;21.43;16.90;;;;;;;9.52;42.01;100137.77;127949;1099;23231;-76
2021/04/28 05:40:48;;;;;;;23.43;17.98;;;;;;;9.69;40.64;100142.03;128008;1102;22350;-77
2021/04/28 05:43:18;;;;;;;20.00;15.40;;;;;;;9.84;40.20;100136.91;128050;1102;22356;-76
2021/04/28 05:45:46;;;;;;;21.38;15.03;;;;;;;10.04;40.20;100140.00;128218;1101;22374;-75
2021/04/28 05:48:16;;;;;;;19.68;13.88;;;;;;;10.26;39.45;100143.73;127989;1100;22376;-76
2021/04/28 05:50:46;;;;;;;20.20;13.80;;;;;;;10.30;39.24;100143.24;127949;1104;22352;-75
2021/04/28 05:53:15;;;;;;;19.48;13.95;;;;;;;10.47;38.59;100137.89;127545;1105;22484;-75
2021/04/28 05:55:43;;;;;;;19.68;13.80;;;;;;;10.42;38.24;100132.29;127515;1104;22383;-76
2021/04/28 05:58:12;;;;;;;19.18;13.50;;;;;;;10.61;38.56;100131.88;127945;1101;24202;-75
2021/04/28 06:00:41;;;;;;;16.68;11.58;;;;;;;11.01;37.65;100136.09;128034;1098;24491;-76
2021/04/28 06:03:10;;;;;;;20.90;15.70;;;;;;;11.23;36.87;100141.53;128285;1101;22534;-77
2021/04/28 06:05:39;;;;;;;16.60;12.03;;;;;;;11.44;36.96;100141.70;128101;1102;22397;-76
2021/04/28 06:08:13;;;;;;;23.65;11.90;;;;;;;11.43;35.96;100132.14;128069;1098;22359;-77
2021/04/28 06:10:42;;;;;;;24.70;17.90;;;;;;;11.37;36.11;100137.32;128401;1098;22527;-76
2021/04/28 06:13:14;;;;;;;28.87;15.67;;;;;;;11.44;36.23;100131.13;128624;1098;22349;-76
2021/04/28 06:15:42;;;;;;;31.60;19.88;;;;;;;11.63;36.08;100127.17;128340;1096;22350;-76
2021/04/28 06:18:11;;;;;;;22.20;15.68;;;;;;;11.89;35.77;100121.45;128362;1098;22337;-76
2021/04/28 06:20:40;;;;;;;18.03;12.18;;;;;;;12.11;35.60;100122.38;128348;1096;22337;-76
2021/04/28 06:23:09;;;;;;;17.40;12.03;;;;;;;12.41;35.41;100123.17;128324;1098;22340;-76
2021/04/28 06:25:39;;;;;;;16.97;12.93;;;;;;;12.44;34.32;100124.63;128373;1098;22342;-76
2021/04/28 06:28:10;;;;;;;24.98;15.63;;;;;;;12.44;34.20;100124.63;128323;1096;24475;-76
2021/04/28 06:30:41;;;;;;;24.60;16.80;;;;;;;12.42;34.04;100116.86;128378;1096;22800;-76
2021/04/28 06:33:10;;;;;;;21.57;13.77;;;;;;;12.58;34.45;100110.53;128337;1098;22342;-76
2021/04/28 06:35:39;;;;;;;30.53;20.57;;;;;;;12.78;33.90;100120.53;128636;1098;23686;-76
2021/04/28 06:38:07;;;;;;;29.50;17.83;;;;;;;13.04;33.98;100120.80;128754;1095;24535;-76
2021/04/28 06:40:36;;;;;;;18.05;13.53;;;;;;;13.35;33.47;100120.48;128632;1095;24154;-77
2021/04/28 06:43:06;;;;;;;15.50;11.03;;;;;;;13.25;32.52;100117.34;128672;1098;22324;-76
2021/04/28 06:45:36;;;;;;;29.08;16.05;;;;;;;13.16;32.97;100119.30;128656;1098;22811;-77
2021/04/28 06:48:07;;;;;;;17.85;11.98;;;;;;;13.22;32.84;100114.23;128675;1098;22430;-76
2021/04/28 06:50:36;;;;;;;16.03;11.00;;;;;;;13.35;32.60;100111.72;128647;1098;22327;-76
2021/04/28 06:53:09;;;;;;;18.43;11.80;;;;;;;13.57;32.45;100110.67;128390;1097;24354;-73
2021/04/28 06:55:38;;;;;;;14.85;10.20;;;;;;;13.47;31.78;100110.19;128329;1096;22345;-75
2021/04/28 06:58:07;;;;;;;16.30;10.40;;;;;;;13.17;32.01;100109.50;128321;1098;22336;-75
2021/04/28 07:00:37;;;;;;;12.28;9.88;;;;;;;12.91;32.40;100118.84;128344;1096;23878;-76
2021/04/28 07:03:06;;;;;;;16.40;10.20;;;;;;;12.80;32.23;100107.92;128303;1095;24997;-76
2021/04/28 07:05:35;;;;;;;14.23;10.23;;;;;;;12.91;32.39;100104.77;128315;1098;22337;-76
2021/04/28 07:08:04;;;;;;;22.33;17.53;;;;;;;12.98;32.20;100102.18;128358;1095;22340;-76
2021/04/28 07:10:32;;;;;;;14.60;10.58;;;;;;;13.18;32.33;100100.53;128314;1098;22395;-75
2021/04/28 07:13:04;;;;;;;16.58;10.23;;;;;;;13.44;32.43;100094.66;128674;1095;24212;-77
2021/04/28 07:15:33;;;;;;;13.78;9.20;;;;;;;13.58;30.82;100107.00;128359;1098;22339;-77
2021/04/28 07:18:03;;;;;;;13.93;10.53;;;;;;;13.37;30.39;100093.78;128297;1098;22350;-76
2021/04/28 07:20:32;;;;;;;15.75;12.20;;;;;;;13.29;30.76;100101.86;128316;1100;22438;-77
2021/04/28 07:23:04;;;;;;;13.95;10.53;;;;;;;13.37;31.21;100099.91;128311;1099;22355;-76
2021/04/28 07:25:33;;;;;;;16.55;12.23;;;;;;;13.82;30.87;100096.94;128256;1101;22360;-77
2021/04/28 07:28:02;;;;;;;14.83;9.63;;;;;;;13.87;30.35;100094.53;128119;1098;24569;-76
2021/04/28 07:30:31;;;;;;;13.98;10.55;;;;;;;13.85;30.94;100093.90;128069;1098;22434;-77
2021/04/28 07:33:00;;;;;;;14.63;9.95;;;;;;;13.84;30.37;100102.89;128310;1101;22658;-76
2021/04/28 07:35:29;;;;;;;17.38;10.65;;;;;;;13.75;29.98;100101.39;128296;1100;22374;-76
2021/04/28 07:37:58;;;;;;;11.63;8.88;;;;;;;13.74;30.34;100102.42;128350;1098;22364;-77
2021/04/28 07:40:27;;;;;;;16.15;10.65;;;;;;;13.54;30.03;100083.70;128353;1096;22370;-78
2021/04/28 07:42:56;;;;;;;20.60;12.28;;;;;;;13.49;30.62;100076.30;128346;1098;22797;-76
2021/04/28 07:45:25;;;;;;;25.63;12.38;;;;;;;13.81;31.05;100084.69;128623;1094;25073;-76
2021/04/28 07:47:54;;;;;;;12.55;9.35;;;;;;;13.97;30.26;100089.69;128670;1098;22321;-76
2021/04/28 07:50:24;;;;;;;13.65;9.15;;;;;;;13.90;29.83;100091.49;128668;1098;22315;-77
2021/04/28 07:52:53;;;;;;;15.55;9.60;;;;;;;14.06;30.02;100088.52;128617;1098;22417;-75
2021/04/28 07:55:22;;;;;;;12.70;9.93;;;;;;;14.08;29.83;100083.81;128675;1098;22342;-76
2021/04/28 07:57:52;;;;;;;12.48;9.18;;;;;;;14.19;29.34;100086.92;128728;1094;24463;-76
2021/04/28 08:00:21;;;;;;;12.05;8.30;;;;;;;14.31;29.93;100082.69;128671;1095;22324;-76
2021/04/28 08:02:50;;;;;;;11.50;9.15;;;;;;;14.63;29.37;100085.67;128723;1097;22399;-78
2021/04/28 08:05:19;;;;;;;11.35;9.20;;;;;;;14.68;29.34;100080.58;128641;1094;22336;-76
2021/04/28 08:07:49;;;;;;;13.93;9.63;;;;;;;14.94;29.47;100079.82;128667;1095;22340;-76
2021/04/28 08:10:18;;;;;;;19.18;16.25;;;;;;;15.18;28.53;100079.21;128648;1095;22419;-75
2021/04/28 08:12:47;;;;;;;12.38;9.33;;;;;;;15.29;28.56;100088.42;128713;1095;24163;-77
2021/04/28 08:15:16;;;;;;;12.68;9.23;;;;;;;15.37;28.31;100084.75;128644;1098;22341;-77
2021/04/28 08:17:45;;;;;;;17.78;9.83;;;;;;;15.31;28.22;100081.06;128690;1098;22318;-75
2021/04/28 08:20:16;;;;;;;11.78;8.73;;;;;;;15.39;28.34;100078.17;128698;1098;22406;-77
2021/04/28 08:22:46;;;;;;;14.20;9.50;;;;;;;15.58;28.12;100073.86;128620;1095;22324;-77
2021/04/28 08:25:15;;;;;;;11.85;8.53;;;;;;;15.62;28.06;100075.08;128346;1096;23101;-75
2021/04/28 08:27:44;;;;;;;10.35;8.63;;;;;;;15.97;27.82;100073.00;128402;1098;22331;-77
2021/04/28 08:30:14;;;;;;;12.03;9.03;;;;;;;16.24;27.78;100072.90;128362;1100;22406;-76
2021/04/28 08:32:42;;;;;;;9.60;8.60;;;;;;;16.24;27.36;100062.23;128093;1099;24501;-77
2021/04/28 08:35:14;;;;;;;;;;;;;;;16.04;27.17;100064.16;128167;1101;22744;-76
2021/04/28 08:37:47;;;;;;;11.55;9.45;;;;;;;16.01;27.37;100065.40;128076;1100;21274;-76
2021/04/28 08:40:17;;;;;;;24.00;13.30;;;;;;;16.03;27.04;100071.34;128061;1102;22384;-76
2021/04/28 08:42:47;;;;;;;16.03;10.73;;;;;;;16.14;27.17;100060.02;128218;1101;22370;-78
2021/04/28 08:45:17;;;;;;;14.95;10.73;;;;;;;16.24;27.19;100086.23;128372;1097;24466;-76
2021/04/28 08:47:46;;;;;;;16.28;10.10;;;;;;;16.29;26.78;100061.59;128324;1095;22346;-76
2021/04/28 08:50:15;;;;;;;12.33;8.50;;;;;;;16.30;27.19;100057.92;128693;1095;22319;-77
2021/04/28 08:52:44;;;;;;;16.85;9.98;;;;;;;16.43;26.94;100060.52;128635;1097;22327;-76
2021/04/28 08:55:14;;;;;;;16.75;9.63;;;;;;;16.65;27.25;100058.33;128838;1098;22334;-78
2021/04/28 08:57:43;;;;;;;12.57;9.47;;;;;;;16.80;26.34;100069.56;128670;1095;24151;-76
2021/04/28 09:00:14;;;;;;;19.25;11.03;;;;;;;16.67;26.14;100072.28;128679;1098;22325;-76
2021/04/28 09:02:56;;;;;;;10.65;9.23;;;;;;;16.48;26.59;100050.02;128668;1098;23094;-77
2021/04/28 09:05:31;;;;;;;15.28;8.33;;;;;;;16.61;26.58;100049.13;128673;1098;22525;-76
2021/04/28 09:08:01;;;;;;;13.23;8.98;;;;;;;16.87;26.43;100043.65;128795;1098;22326;-77
2021/04/28 09:10:30;;;;;;;10.23;8.03;;;;;;;17.14;26.40;100054.93;128761;1098;22350;-76
2021/04/28 09:13:05;;;;;;;21.88;8.33;;;;;;;17.39;26.03;100036.24;128750;1098;22346;-76
2021/04/28 09:15:40;;;;;;;11.38;7.70;;;;;;;17.67;26.01;100034.93;128715;1095;24421;-77
2021/04/28 09:18:15;;;;;;;13.10;8.55;;;;;;;17.86;25.32;100027.77;128687;1098;22342;-75
2021/04/28 09:21:14;;;;;;;11.73;8.37;;;;;;;18.14;25.33;100032.56;128643;1098;22335;-76
2021/04/28 09:24:34;;;;;;;11.03;7.83;;;;;;;18.52;25.14;100039.45;128245;1101;22336;-77
2021/04/28 09:27:35;;;;;;;10.10;7.13;;;;;;;18.65;24.47;100033.10;128260;1098;24173;-76
2021/04/28 09:30:27;;;;;;;12.35;7.88;;;;;;;19.18;24.44;100038.46;128345;1101;22359;-75
2021/04/28 09:33:03;;;;;;;9.55;7.63;;;;;;;19.59;23.96;100020.63;128281;1101;22354;-76
2021/04/28 09:35:33;;;;;;;12.03;8.53;;;;;;;19.73;23.84;100024.73;128280;1098;22371;-76
2021/04/28 09:38:04;;;;;;;12.35;9.05;;;;;;;20.22;23.70;100027.84;128230;1101;22371;-77
2021/04/28 09:40:50;;;;;;;10.75;7.93;;;;;;;20.37;22.89;100007.74;127939;1101;24179;-76
2021/04/28 09:43:19;;;;;;;10.43;8.50;;;;;;;20.59;22.63;100006.03;128025;1101;24271;-76
2021/04/28 09:45:51;;;;;;;10.85;8.25;;;;;;;20.96;22.63;100016.31;127981;1104;22653;-76
2021/04/28 09:48:25;;;;;;;9.78;7.85;;;;;;;21.18;22.33;100002.93;128115;1104;22480;-76
2021/04/28 09:51:09;;;;;;;13.93;8.68;;;;;;;21.60;22.18;100003.30;127713;1101;22373;-77
2021/04/28 09:53:38;;;;;;;12.95;8.38;;;;;;;21.97;21.64;99997.29;128044;1104;22371;-76
2021/04/28 09:56:17;;;;;;;1427.85;242.28;;;;;;;22.20;20.98;99988.16;127972;1105;22653;-75
2021/04/28 09:58:50;;;;;;;16.03;10.53;;;;;;;22.04;20.80;99986.34;128211;1101;22422;-76
2021/04/28 10:01:37;;;;;;;11.48;8.83;;;;;;;21.26;20.82;99982.89;128427;1095;22854;-76
2021/04/28 10:04:09;;;;;;;14.53;11.58;;;;;;;20.98;21.44;99975.77;128618;1098;22324;-76
2021/04/28 10:06:48;;;;;;;15.75;9.60;;;;;;;20.83;21.35;99985.22;128686;1095;24466;-76
2021/04/28 10:09:41;;;;;;;10.20;9.18;;;;;;;20.43;21.70;99974.59;128557;1095;22336;-76
2021/04/28 10:12:13;;;;;;;12.40;9.00;;;;;;;20.49;22.20;99970.91;128554;1098;22880;-76
2021/04/28 10:14:41;;;;;;;12.63;9.45;;;;;;;20.51;21.64;99965.36;128719;1093;22345;-74
2021/04/28 10:17:12;;;;;;;10.63;9.45;;;;;;;20.32;21.73;99960.16;128288;1097;23361;-76
2021/04/28 10:19:41;;;;;;;11.23;9.90;;;;;;;20.33;21.90;99958.32;128327;1098;22427;-80
2021/04/28 10:22:12;;;;;;;80.15;18.30;;;;;;;20.29;21.85;99960.64;128317;1100;22325;-79
2021/04/28 10:24:47;;;;;;;31.23;11.68;;;;;;;19.98;21.72;99956.59;128359;1101;22347;-79
2021/04/28 10:27:18;;;;;;;13.25;10.33;;;;;;;19.79;22.35;99947.10;128298;1098;24505;-80
2021/04/28 10:29:51;;;;;;;26.48;12.40;;;;;;;19.65;22.99;99947.38;128065;1098;22347;-79
2021/04/28 10:32:24;;;;;;;26.20;11.85;;;;;;;19.90;23.22;99941.71;128248;1101;22434;-80
2021/04/28 10:35:00;;;;;;;19.13;10.13;;;;;;;20.04;22.86;99928.83;128135;1101;22358;-81
2021/04/28 10:37:32;;;;;;;14.83;9.53;;;;;;;19.73;22.62;99938.17;128290;1101;22357;-78
2021/04/28 10:40:10;;;;;;;58.40;52.80;;;;;;;19.27;22.93;99940.67;128375;1101;22341;-79
2021/04/28 10:42:39;;;;;;;17.45;13.65;;;;;;;19.06;23.78;99938.60;128399;1098;22324;-78
2021/04/28 10:45:43;;;;;;;13.58;10.63;;;;;;;18.95;23.54;99934.05;128671;1098;22411;-79
2021/04/28 10:48:41;;;;;;;10.05;8.33;;;;;;;18.66;23.97;99930.38;128236;1098;24463;-79
2021/04/28 10:51:35;;;;;;;12.28;9.28;;;;;;;18.43;23.83;99920.48;127987;1104;22583;-79
2021/04/28 10:54:27;;;;;;;11.58;9.15;;;;;;;18.03;24.09;99927.23;128074;1104;22340;-80
2021/04/28 10:56:58;;;;;;;12.27;9.00;;;;;;;17.55;24.53;99927.19;127769;1103;22370;-80
2021/04/28 10:59:41;;;;;;;10.00;9.00;;;;;;;17.53;25.29;99922.09;127603;1108;22382;-81
2021/04/28 11:02:12;;;;;;;14.48;8.05;;;;;;;17.59;25.34;99923.03;127573;1108;22472;-79
2021/04/28 11:05:02;;;;;;;17.80;10.20;;;;;;;17.58;24.92;99921.41;127551;1108;22396;-79
2021/04/28 11:07:44;;;;;;;12.80;9.95;;;;;;;17.35;25.40;99919.41;127584;1104;22423;-79
2021/04/28 11:10:36;;;;;;;12.93;8.45;;;;;;;17.36;25.84;99921.88;127436;1107;22381;-79
2021/04/28 11:13:10;;;;;;;10.33;8.65;;;;;;;17.25;25.54;99911.91;127656;1105;22424;-80
2021/04/28 11:15:46;;;;;;;10.45;7.35;;;;;;;16.99;25.74;99906.85;127393;1107;22395;-79
2021/04/28 11:18:37;;;;;;;12.10;7.75;;;;;;;16.83;25.64;99902.92;127926;1105;22369;-81
2021/04/28 11:21:18;;;;;;;10.43;9.20;;;;;;;16.54;25.75;99907.84;128063;1101;24514;-82
2021/04/28 11:24:15;;;;;;;9.70;7.60;;;;;;;16.49;26.18;99894.33;128257;1101;23723;-80
2021/04/28 11:26:52;;;;;;;9.93;7.23;;;;;;;16.55;26.66;99895.33;128343;1098;22411;-80
2021/04/28 11:29:21;;;;;;;8.80;7.70;;;;;;;16.63;26.38;99889.73;128113;1098;24540;-79
2021/04/28 11:31:57;;;;;;;15.95;9.10;;;;;;;16.73;26.42;99890.05;128095;1098;24997;-79
2021/04/28 11:34:36;;;;;;;10.08;7.58;;;;;;;16.93;26.14;99888.03;128312;1098;22326;-79
2021/04/28 11:37:12;;;;;;;10.75;7.30;;;;;;;17.06;26.36;99880.91;128310;1098;22689;-78
2021/04/28 11:39:46;;;;;;;14.58;7.40;;;;;;;17.10;26.40;99872.26;128292;1101;22348;-79